Accueil
METAR-TAF:

METAR-TAF

Aéroports :

Aéroport de Bournemouth

Bornemouth, Angleterre

latitude: 50-47N, longitude: 001-50W, altitude: 11 m

Observation

Le bulletin a été fait il y a 34 minutes, à 13:20 UTC
Vent 11 kt de sud-ouest
Température 22°C
Humidité 65%
Pression 1024 hPa
Visibilité 10 km ou plus
Nuages fragmentés à une hauteur de 2100 ft

METAR: EGHH 191320Z 23011KT 9999 BKN021 22/15 Q1024

Heure: 14:54 (13:54 UTC)

Prévision

Le bulletin a été fait il y a 2 heures et 53 minutes, à 11:01 UTC
Prévision valable du 19 à 12 UTC au 19 à 21 UTC
Vent 7 kt de ouest/sud-ouest
Visibilité 10 km ou plus
Nuages épars à une hauteur de 2000 ft
Probabilité 30% :
Temporairement
du 19 à 12 UTC au 19 à 14 UTC
Nuages fragmentés à une hauteur de 1400 ft
Temporairement
du 19 à 19 UTC au 19 à 21 UTC
Nuages fragmentés à une hauteur de 1000 ft

TAF: EGHH 191101Z 1912/1921 24007KT 9999 SCT020 PROB30 TEMPO 1912/1914 BKN014 TEMPO 1919/1921 BKN010

Observations et prévisions météorologiques de plus de 4000 aéroports (messages METAR et TAF).

Les stations disponibles sont représentées par des disques jaunes et rouges sur la carte.

Passer la souris dessus pour voir le nom de la station.

Cliquer dessus pour voir les observations et prévisions météorologiques.

Pour changer de carte: cliquez sur les boutons verts avec une croix noire pour zoomer, sur le bouton vert avec un tiret pour effectuer un zoom arrière, ou sur les flèches vertes pour les cartes adjacentes.


METAR-TAF: